KSLN/SLN METAR and TAF weather

Enter ICAO airport designator
Station Type Date Time Source
KSLN METAR 2020/06/05 08:53 UTC NOAA

KSLN 050853Z AUTO 13009KT 10SM CLR 24/16 A2979 RMK AO2 SLP070 T02440161 58001


Station Type Date Time Source
KSLN Decoded METAR 2020/06/05 08:53 UTC NOAA

SALINA MUNICIPAL AIRPORT, KS, United States (KSLN) 38-47N 97-39W 385M
Jun 05, 2020 - 04:53 AM EDT / 2020.06.05 0853 UTC
Wind: from the SE (130 degrees) at 10 MPH (9 KT):0
Visibility: 10 mile(s):0
Sky conditions: clear
Temperature: 75.9 F (24.4 C)
Dew Point: 61.0 F (16.1 C)
Relative Humidity: 59%
Pressure (altimeter): 29.79 in. Hg (1008 hPa)
Pressure tendency: 0.00 inches (0.1 hPa) lower than three hours ago
ob: KSLN 050853Z AUTO 13009KT 10SM CLR 24/16 A2979 RMK AO2 SLP070 T02440161 58001
cycle: 9

Station Type Date Time Source
KSLN TAF 2020/06/05 07:18 UTC NOAA

TAF
AMD KSLN 050715Z 0507/0606 09007KT P6SM SCT100 BKN200
FM050900 16008KT P6SM SCT100 BKN200
FM051600 16011KT P6SM SCT200

Example: see airport list